sensor_id;sensor_type;location;lat;lon;timestamp;temperature;humidity
14397;DHT22;50653;0.000;0.000;2022-09-03T00:02:31;16.70;96.60
14397;DHT22;50653;0.000;0.000;2022-09-03T00:05:05;16.70;96.40
14397;DHT22;50653;0.000;0.000;2022-09-03T00:10:49;16.40;97.30
14397;DHT22;50653;0.000;0.000;2022-09-03T00:13:26;16.30;97.70
14397;DHT22;50653;0.000;0.000;2022-09-03T00:15:55;16.30;98.00
14397;DHT22;50653;0.000;0.000;2022-09-03T00:18:24;16.30;97.80
14397;DHT22;50653;0.000;0.000;2022-09-03T00:21:02;16.50;97.30
14397;DHT22;50653;0.000;0.000;2022-09-03T00:23:34;16.50;97.10
14397;DHT22;50653;0.000;0.000;2022-09-03T00:33:57;16.50;96.60
14397;DHT22;50653;0.000;0.000;2022-09-03T00:36:35;16.60;95.80
14397;DHT22;50653;0.000;0.000;2022-09-03T00:39:14;16.60;95.70
14397;DHT22;50653;0.000;0.000;2022-09-03T00:44:47;16.50;95.90
14397;DHT22;50653;0.000;0.000;2022-09-03T00:47:45;16.50;95.70
14397;DHT22;50653;0.000;0.000;2022-09-03T00:52:51;16.40;96.10
14397;DHT22;50653;0.000;0.000;2022-09-03T00:58:14;16.40;96.20
14397;DHT22;50653;0.000;0.000;2022-09-03T01:00:45;16.40;96.30
14397;DHT22;50653;0.000;0.000;2022-09-03T01:14:38;15.90;97.60
14397;DHT22;50653;0.000;0.000;2022-09-03T01:17:30;15.80;97.80
14397;DHT22;50653;0.000;0.000;2022-09-03T01:20:20;15.60;98.20
14397;DHT22;50653;0.000;0.000;2022-09-03T01:23:32;15.60;98.40
14397;DHT22;50653;0.000;0.000;2022-09-03T01:29:35;15.80;98.10
14397;DHT22;50653;0.000;0.000;2022-09-03T01:32:18;16.00;97.70
14397;DHT22;50653;0.000;0.000;2022-09-03T01:35:07;16.10;97.20
14397;DHT22;50653;0.000;0.000;2022-09-03T01:40:41;16.30;96.50
14397;DHT22;50653;0.000;0.000;2022-09-03T01:46:18;16.10;96.40
14397;DHT22;50653;0.000;0.000;2022-09-03T01:48:57;16.10;96.60
14397;DHT22;50653;0.000;0.000;2022-09-03T01:51:28;15.80;97.50
14397;DHT22;50653;0.000;0.000;2022-09-03T01:56:59;15.90;97.10
14397;DHT22;50653;0.000;0.000;2022-09-03T02:02:37;16.10;96.70
14397;DHT22;50653;0.000;0.000;2022-09-03T02:05:06;15.80;96.60
14397;DHT22;50653;0.000;0.000;2022-09-03T02:07:46;15.40;97.50
14397;DHT22;50653;0.000;0.000;2022-09-03T02:10:25;15.70;97.60
14397;DHT22;50653;0.000;0.000;2022-09-03T02:13:01;15.80;97.20
14397;DHT22;50653;0.000;0.000;2022-09-03T02:15:29;15.90;96.70
14397;DHT22;50653;0.000;0.000;2022-09-03T02:18:00;16.00;96.60
14397;DHT22;50653;0.000;0.000;2022-09-03T02:20:27;16.00;96.40
14397;DHT22;50653;0.000;0.000;2022-09-03T02:22:55;15.90;96.70
14397;DHT22;50653;0.000;0.000;2022-09-03T02:25:25;15.80;97.10
14397;DHT22;50653;0.000;0.000;2022-09-03T02:27:54;15.80;97.30
14397;DHT22;50653;0.000;0.000;2022-09-03T02:30:19;15.80;97.00
14397;DHT22;50653;0.000;0.000;2022-09-03T02:32:45;15.60;97.90
14397;DHT22;50653;0.000;0.000;2022-09-03T02:35:12;15.60;98.30
14397;DHT22;50653;0.000;0.000;2022-09-03T02:37:38;15.70;97.80
14397;DHT22;50653;0.000;0.000;2022-09-03T02:40:03;15.70;97.80
14397;DHT22;50653;0.000;0.000;2022-09-03T02:42:33;15.50;98.20
14397;DHT22;50653;0.000;0.000;2022-09-03T02:45:07;15.40;98.80
14397;DHT22;50653;0.000;0.000;2022-09-03T02:47:35;15.40;98.60
14397;DHT22;50653;0.000;0.000;2022-09-03T02:50:03;15.40;98.70
14397;DHT22;50653;0.000;0.000;2022-09-03T02:52:28;15.50;98.60
14397;DHT22;50653;0.000;0.000;2022-09-03T02:54:54;15.60;98.20
14397;DHT22;50653;0.000;0.000;2022-09-03T02:57:19;15.80;97.70
14397;DHT22;50653;0.000;0.000;2022-09-03T02:59:45;15.90;97.40
14397;DHT22;50653;0.000;0.000;2022-09-03T03:02:12;15.80;97.60
14397;DHT22;50653;0.000;0.000;2022-09-03T03:04:39;15.40;98.20
14397;DHT22;50653;0.000;0.000;2022-09-03T03:07:05;15.10;99.10
14397;DHT22;50653;0.000;0.000;2022-09-03T03:09:31;15.20;99.30
14397;DHT22;50653;0.000;0.000;2022-09-03T03:11:57;15.40;98.60
14397;DHT22;50653;0.000;0.000;2022-09-03T03:14:22;15.60;97.90
14397;DHT22;50653;0.000;0.000;2022-09-03T03:16:49;15.70;97.70
14397;DHT22;50653;0.000;0.000;2022-09-03T03:19:15;15.80;97.10
14397;DHT22;50653;0.000;0.000;2022-09-03T03:21:41;15.80;97.00
14397;DHT22;50653;0.000;0.000;2022-09-03T03:24:07;15.60;97.30
14397;DHT22;50653;0.000;0.000;2022-09-03T03:26:33;15.60;97.60
14397;DHT22;50653;0.000;0.000;2022-09-03T03:29:02;15.60;97.60
14397;DHT22;50653;0.000;0.000;2022-09-03T03:31:31;15.60;97.40
14397;DHT22;50653;0.000;0.000;2022-09-03T03:33:59;15.60;97.40
14397;DHT22;50653;0.000;0.000;2022-09-03T03:36:28;15.40;98.00
14397;DHT22;50653;0.000;0.000;2022-09-03T03:38:56;15.50;97.60
14397;DHT22;50653;0.000;0.000;2022-09-03T03:41:27;15.70;97.20
14397;DHT22;50653;0.000;0.000;2022-09-03T03:43:54;15.60;97.30
14397;DHT22;50653;0.000;0.000;2022-09-03T03:46:22;15.50;97.40
14397;DHT22;50653;0.000;0.000;2022-09-03T03:48:49;15.40;97.70
14397;DHT22;50653;0.000;0.000;2022-09-03T03:51:15;15.30;97.70
14397;DHT22;50653;0.000;0.000;2022-09-03T03:53:41;15.50;97.40
14397;DHT22;50653;0.000;0.000;2022-09-03T03:56:09;15.40;97.70
14397;DHT22;50653;0.000;0.000;2022-09-03T03:58:36;15.40;97.60
14397;DHT22;50653;0.000;0.000;2022-09-03T04:01:05;15.30;98.00
14397;DHT22;50653;0.000;0.000;2022-09-03T04:03:32;15.30;98.00
14397;DHT22;50653;0.000;0.000;2022-09-03T04:05:59;15.40;97.90
14397;DHT22;50653;0.000;0.000;2022-09-03T04:08:28;15.50;97.70
14397;DHT22;50653;0.000;0.000;2022-09-03T04:10:58;15.50;97.60
14397;DHT22;50653;0.000;0.000;2022-09-03T04:13:31;15.40;97.90
14397;DHT22;50653;0.000;0.000;2022-09-03T04:18:26;15.20;98.90
14397;DHT22;50653;0.000;0.000;2022-09-03T04:20:52;15.10;99.00
14397;DHT22;50653;0.000;0.000;2022-09-03T04:23:18;15.20;98.90
14397;DHT22;50653;0.000;0.000;2022-09-03T04:25:51;15.20;98.90
14397;DHT22;50653;0.000;0.000;2022-09-03T04:28:17;15.10;99.00
14397;DHT22;50653;0.000;0.000;2022-09-03T04:30:42;15.30;98.60
14397;DHT22;50653;0.000;0.000;2022-09-03T04:33:08;15.30;98.60
14397;DHT22;50653;0.000;0.000;2022-09-03T04:35:33;15.30;98.60
14397;DHT22;50653;0.000;0.000;2022-09-03T04:37:59;15.40;98.60
14397;DHT22;50653;0.000;0.000;2022-09-03T04:40:25;15.40;98.60
14397;DHT22;50653;0.000;0.000;2022-09-03T04:42:56;15.50;98.50
14397;DHT22;50653;0.000;0.000;2022-09-03T04:45:21;15.60;98.40
14397;DHT22;50653;0.000;0.000;2022-09-03T04:48:01;15.60;98.20
14397;DHT22;50653;0.000;0.000;2022-09-03T04:50:27;15.60;98.30
14397;DHT22;50653;0.000;0.000;2022-09-03T04:53:03;15.60;98.40
14397;DHT22;50653;0.000;0.000;2022-09-03T04:55:37;15.60;98.20
14397;DHT22;50653;0.000;0.000;2022-09-03T04:58:04;15.60;98.50
14397;DHT22;50653;0.000;0.000;2022-09-03T05:00:32;15.60;98.50
14397;DHT22;50653;0.000;0.000;2022-09-03T05:03:00;15.60;98.50
14397;DHT22;50653;0.000;0.000;2022-09-03T05:05:26;15.60;98.70
14397;DHT22;50653;0.000;0.000;2022-09-03T05:07:51;15.60;98.60
14397;DHT22;50653;0.000;0.000;2022-09-03T05:10:18;15.60;98.70
14397;DHT22;50653;0.000;0.000;2022-09-03T05:12:47;15.60;98.90
14397;DHT22;50653;0.000;0.000;2022-09-03T05:15:14;15.60;98.90
14397;DHT22;50653;0.000;0.000;2022-09-03T05:17:40;15.60;98.90
14397;DHT22;50653;0.000;0.000;2022-09-03T05:20:06;15.40;99.30
14397;DHT22;50653;0.000;0.000;2022-09-03T05:22:33;15.00;99.80
14397;DHT22;50653;0.000;0.000;2022-09-03T05:24:59;15.30;99.90
14397;DHT22;50653;0.000;0.000;2022-09-03T05:27:24;15.30;99.90
14397;DHT22;50653;0.000;0.000;2022-09-03T05:29:50;15.30;99.90
14397;DHT22;50653;0.000;0.000;2022-09-03T05:32:16;15.10;99.90
14397;DHT22;50653;0.000;0.000;2022-09-03T05:34:42;15.30;99.90
14397;DHT22;50653;0.000;0.000;2022-09-03T05:37:08;15.20;99.90
14397;DHT22;50653;0.000;0.000;2022-09-03T05:39:34;15.20;99.90
14397;DHT22;50653;0.000;0.000;2022-09-03T05:42:00;15.30;99.90
14397;DHT22;50653;0.000;0.000;2022-09-03T05:44:25;15.30;99.90
14397;DHT22;50653;0.000;0.000;2022-09-03T05:46:51;15.20;99.90
14397;DHT22;50653;0.000;0.000;2022-09-03T05:49:17;15.20;99.90
14397;DHT22;50653;0.000;0.000;2022-09-03T05:51:43;15.40;99.90
14397;DHT22;50653;0.000;0.000;2022-09-03T05:54:09;15.40;99.90
14397;DHT22;50653;0.000;0.000;2022-09-03T05:56:36;15.50;99.90
14397;DHT22;50653;0.000;0.000;2022-09-03T05:59:05;15.50;99.90
14397;DHT22;50653;0.000;0.000;2022-09-03T06:01:38;15.60;99.90
14397;DHT22;50653;0.000;0.000;2022-09-03T06:04:06;15.70;99.90
14397;DHT22;50653;0.000;0.000;2022-09-03T06:06:35;15.70;99.90
14397;DHT22;50653;0.000;0.000;2022-09-03T06:09:10;15.80;99.90
14397;DHT22;50653;0.000;0.000;2022-09-03T06:11:36;15.90;99.90
14397;DHT22;50653;0.000;0.000;2022-09-03T06:14:04;15.70;99.90
14397;DHT22;50653;0.000;0.000;2022-09-03T06:16:32;15.70;99.90
14397;DHT22;50653;0.000;0.000;2022-09-03T06:18:59;15.90;99.90
14397;DHT22;50653;0.000;0.000;2022-09-03T06:21:25;15.90;99.90
14397;DHT22;50653;0.000;0.000;2022-09-03T06:23:52;15.90;99.90
14397;DHT22;50653;0.000;0.000;2022-09-03T06:26:19;16.00;99.90
14397;DHT22;50653;0.000;0.000;2022-09-03T06:28:45;16.00;99.90
14397;DHT22;50653;0.000;0.000;2022-09-03T06:31:17;16.10;99.90
14397;DHT22;50653;0.000;0.000;2022-09-03T06:33:44;15.90;99.90
14397;DHT22;50653;0.000;0.000;2022-09-03T06:36:14;16.00;99.90
14397;DHT22;50653;0.000;0.000;2022-09-03T06:38:41;16.00;99.90
14397;DHT22;50653;0.000;0.000;2022-09-03T06:43:40;15.60;99.90
14397;DHT22;50653;0.000;0.000;2022-09-03T06:46:14;15.80;99.90
14397;DHT22;50653;0.000;0.000;2022-09-03T06:48:40;16.00;99.90
14397;DHT22;50653;0.000;0.000;2022-09-03T06:51:12;16.10;99.90
14397;DHT22;50653;0.000;0.000;2022-09-03T06:53:39;16.10;99.90
14397;DHT22;50653;0.000;0.000;2022-09-03T06:56:10;16.10;99.90
14397;DHT22;50653;0.000;0.000;2022-09-03T06:58:41;16.10;99.90
14397;DHT22;50653;0.000;0.000;2022-09-03T07:01:18;16.30;99.90
14397;DHT22;50653;0.000;0.000;2022-09-03T07:03:45;16.30;99.90
14397;DHT22;50653;0.000;0.000;2022-09-03T07:06:17;16.30;99.90
14397;DHT22;50653;0.000;0.000;2022-09-03T07:08:43;16.40;99.90
14397;DHT22;50653;0.000;0.000;2022-09-03T07:11:14;16.40;99.90
14397;DHT22;50653;0.000;0.000;2022-09-03T07:13:43;16.40;99.90
14397;DHT22;50653;0.000;0.000;2022-09-03T07:16:20;16.50;99.90
14397;DHT22;50653;0.000;0.000;2022-09-03T07:18:46;16.50;99.90
14397;DHT22;50653;0.000;0.000;2022-09-03T07:21:18;16.50;99.90
14397;DHT22;50653;0.000;0.000;2022-09-03T07:23:44;16.50;99.90
14397;DHT22;50653;0.000;0.000;2022-09-03T07:26:31;16.60;99.90
14397;DHT22;50653;0.000;0.000;2022-09-03T07:28:57;16.60;99.90
14397;DHT22;50653;0.000;0.000;2022-09-03T07:31:30;16.70;99.90
14397;DHT22;50653;0.000;0.000;2022-09-03T07:33:56;16.70;99.90
14397;DHT22;50653;0.000;0.000;2022-09-03T07:36:24;16.70;99.90
14397;DHT22;50653;0.000;0.000;2022-09-03T07:38:50;16.70;99.90
14397;DHT22;50653;0.000;0.000;2022-09-03T07:41:16;16.70;99.90
14397;DHT22;50653;0.000;0.000;2022-09-03T07:43:44;16.80;99.90
14397;DHT22;50653;0.000;0.000;2022-09-03T07:46:21;16.80;99.90
14397;DHT22;50653;0.000;0.000;2022-09-03T07:48:57;16.90;99.90
14397;DHT22;50653;0.000;0.000;2022-09-03T07:51:25;17.00;99.50
14397;DHT22;50653;0.000;0.000;2022-09-03T07:53:54;17.00;99.90
14397;DHT22;50653;0.000;0.000;2022-09-03T07:56:20;17.10;99.90
14397;DHT22;50653;0.000;0.000;2022-09-03T07:58:46;16.80;99.90
14397;DHT22;50653;0.000;0.000;2022-09-03T08:01:18;16.70;99.90
14397;DHT22;50653;0.000;0.000;2022-09-03T08:03:46;16.80;99.90
14397;DHT22;50653;0.000;0.000;2022-09-03T08:06:13;16.90;99.90
14397;DHT22;50653;0.000;0.000;2022-09-03T08:08:40;17.00;99.90
14397;DHT22;50653;0.000;0.000;2022-09-03T08:11:13;17.10;99.90
14397;DHT22;50653;0.000;0.000;2022-09-03T08:13:57;17.10;99.90
14397;DHT22;50653;0.000;0.000;2022-09-03T08:16:32;17.20;99.90
14397;DHT22;50653;0.000;0.000;2022-09-03T08:18:58;17.20;99.90
14397;DHT22;50653;0.000;0.000;2022-09-03T08:21:25;17.20;99.90
14397;DHT22;50653;0.000;0.000;2022-09-03T08:23:53;17.30;99.90
14397;DHT22;50653;0.000;0.000;2022-09-03T08:26:21;17.30;99.90
14397;DHT22;50653;0.000;0.000;2022-09-03T08:28:47;17.10;99.90
14397;DHT22;50653;0.000;0.000;2022-09-03T08:31:19;17.10;99.90
14397;DHT22;50653;0.000;0.000;2022-09-03T08:33:52;17.10;99.90
14397;DHT22;50653;0.000;0.000;2022-09-03T08:36:21;17.20;99.90
14397;DHT22;50653;0.000;0.000;2022-09-03T08:38:48;17.30;99.90
14397;DHT22;50653;0.000;0.000;2022-09-03T08:41:26;17.40;99.90
14397;DHT22;50653;0.000;0.000;2022-09-03T08:46:54;17.50;99.90
14397;DHT22;50653;0.000;0.000;2022-09-03T08:49:34;17.60;99.90
14397;DHT22;50653;0.000;0.000;2022-09-03T08:52:14;17.60;99.90
14397;DHT22;50653;0.000;0.000;2022-09-03T08:54:41;17.70;99.90
14397;DHT22;50653;0.000;0.000;2022-09-03T08:57:07;17.70;99.90
14397;DHT22;50653;0.000;0.000;2022-09-03T08:59:33;17.70;99.90
14397;DHT22;50653;0.000;0.000;2022-09-03T09:04:58;17.90;99.90
14397;DHT22;50653;0.000;0.000;2022-09-03T09:07:30;18.00;99.90
14397;DHT22;50653;0.000;0.000;2022-09-03T09:10:16;18.00;99.90
14397;DHT22;50653;0.000;0.000;2022-09-03T09:12:52;18.00;99.90
14397;DHT22;50653;0.000;0.000;2022-09-03T09:21:19;18.20;99.90
14397;DHT22;50653;0.000;0.000;2022-09-03T09:23:49;18.20;99.90
14397;DHT22;50653;0.000;0.000;2022-09-03T09:26:17;18.30;99.90
14397;DHT22;50653;0.000;0.000;2022-09-03T09:28:54;18.30;99.90
14397;DHT22;50653;0.000;0.000;2022-09-03T09:31:21;18.30;99.90
14397;DHT22;50653;0.000;0.000;2022-09-03T09:33:47;18.40;99.90
14397;DHT22;50653;0.000;0.000;2022-09-03T09:36:15;18.40;99.90
14397;DHT22;50653;0.000;0.000;2022-09-03T09:38:42;18.50;99.90
14397;DHT22;50653;0.000;0.000;2022-09-03T09:43:39;18.70;99.90
14397;DHT22;50653;0.000;0.000;2022-09-03T09:46:12;18.80;99.90
14397;DHT22;50653;0.000;0.000;2022-09-03T09:48:45;18.80;99.90
14397;DHT22;50653;0.000;0.000;2022-09-03T09:51:21;18.80;99.50
14397;DHT22;50653;0.000;0.000;2022-09-03T09:53:47;18.80;99.30
14397;DHT22;50653;0.000;0.000;2022-09-03T09:56:25;19.00;99.20
14397;DHT22;50653;0.000;0.000;2022-09-03T09:59:08;18.90;99.20
14397;DHT22;50653;0.000;0.000;2022-09-03T10:01:42;18.90;99.30
14397;DHT22;50653;0.000;0.000;2022-09-03T10:04:12;18.90;99.50
14397;DHT22;50653;0.000;0.000;2022-09-03T10:06:53;19.00;98.90
14397;DHT22;50653;0.000;0.000;2022-09-03T10:09:23;19.10;98.80
14397;DHT22;50653;0.000;0.000;2022-09-03T10:12:04;19.20;98.50
14397;DHT22;50653;0.000;0.000;2022-09-03T10:14:38;19.10;98.70
14397;DHT22;50653;0.000;0.000;2022-09-03T10:17:19;19.20;99.10
14397;DHT22;50653;0.000;0.000;2022-09-03T10:20:08;19.40;98.80
14397;DHT22;50653;0.000;0.000;2022-09-03T10:25:56;19.50;98.30
14397;DHT22;50653;0.000;0.000;2022-09-03T10:28:28;19.50;98.20
14397;DHT22;50653;0.000;0.000;2022-09-03T10:31:26;19.60;98.10
14397;DHT22;50653;0.000;0.000;2022-09-03T10:34:08;19.50;98.10
14397;DHT22;50653;0.000;0.000;2022-09-03T10:45:31;19.70;98.60
14397;DHT22;50653;0.000;0.000;2022-09-03T10:51:05;20.20;98.20
14397;DHT22;50653;0.000;0.000;2022-09-03T10:54:01;20.10;98.10
14397;DHT22;50653;0.000;0.000;2022-09-03T10:59:48;20.20;97.60
14397;DHT22;50653;0.000;0.000;2022-09-03T11:02:37;20.10;97.80
14397;DHT22;50653;0.000;0.000;2022-09-03T11:05:21;20.10;97.90
14397;DHT22;50653;0.000;0.000;2022-09-03T11:07:58;20.50;98.80
14397;DHT22;50653;0.000;0.000;2022-09-03T11:10:30;20.50;97.80
14397;DHT22;50653;0.000;0.000;2022-09-03T11:15:41;20.70;97.10
14397;DHT22;50653;0.000;0.000;2022-09-03T11:18:20;20.60;97.40
14397;DHT22;50653;0.000;0.000;2022-09-03T11:20:50;20.60;97.30
14397;DHT22;50653;0.000;0.000;2022-09-03T11:23:18;20.60;97.30
14397;DHT22;50653;0.000;0.000;2022-09-03T11:25:58;20.70;97.30
14397;DHT22;50653;0.000;0.000;2022-09-03T11:36:51;20.70;97.30
14397;DHT22;50653;0.000;0.000;2022-09-03T11:39:43;20.80;97.30
14397;DHT22;50653;0.000;0.000;2022-09-03T11:42:11;20.80;96.90
14397;DHT22;50653;0.000;0.000;2022-09-03T11:44:44;20.80;97.10
14397;DHT22;50653;0.000;0.000;2022-09-03T11:47:41;20.80;96.70
14397;DHT22;50653;0.000;0.000;2022-09-03T11:50:19;20.80;96.80
14397;DHT22;50653;0.000;0.000;2022-09-03T11:52:49;20.80;97.00
14397;DHT22;50653;0.000;0.000;2022-09-03T11:55:30;20.80;97.10
14397;DHT22;50653;0.000;0.000;2022-09-03T11:57:56;21.10;96.90
14397;DHT22;50653;0.000;0.000;2022-09-03T12:00:23;21.00;96.70
14397;DHT22;50653;0.000;0.000;2022-09-03T12:02:59;21.10;96.60
14397;DHT22;50653;0.000;0.000;2022-09-03T12:10:58;21.00;96.20
14397;DHT22;50653;0.000;0.000;2022-09-03T12:13:31;21.00;96.70
14397;DHT22;50653;0.000;0.000;2022-09-03T12:16:17;21.20;96.50
14397;DHT22;50653;0.000;0.000;2022-09-03T12:18:47;21.20;95.50
14397;DHT22;50653;0.000;0.000;2022-09-03T12:21:18;21.20;96.00
14397;DHT22;50653;0.000;0.000;2022-09-03T12:23:46;21.20;96.00
14397;DHT22;50653;0.000;0.000;2022-09-03T12:26:14;21.40;95.80
14397;DHT22;50653;0.000;0.000;2022-09-03T12:28:54;21.40;94.60
14397;DHT22;50653;0.000;0.000;2022-09-03T12:31:23;21.50;93.90
14397;DHT22;50653;0.000;0.000;2022-09-03T12:34:02;21.40;93.50
14397;DHT22;50653;0.000;0.000;2022-09-03T12:36:38;21.40;94.30
14397;DHT22;50653;0.000;0.000;2022-09-03T12:44:31;21.50;93.40
14397;DHT22;50653;0.000;0.000;2022-09-03T12:49:41;21.70;93.90
14397;DHT22;50653;0.000;0.000;2022-09-03T12:55:06;21.80;93.10
14397;DHT22;50653;0.000;0.000;2022-09-03T12:57:45;21.90;93.20
14397;DHT22;50653;0.000;0.000;2022-09-03T13:00:14;21.80;93.30
14397;DHT22;50653;0.000;0.000;2022-09-03T13:02:55;21.70;93.20
14397;DHT22;50653;0.000;0.000;2022-09-03T13:05:44;22.00;92.80
14397;DHT22;50653;0.000;0.000;2022-09-03T13:08:36;22.00;91.80
14397;DHT22;50653;0.000;0.000;2022-09-03T13:11:04;22.00;92.30
14397;DHT22;50653;0.000;0.000;2022-09-03T13:13:35;22.00;91.90
14397;DHT22;50653;0.000;0.000;2022-09-03T13:18:45;22.00;92.70
14397;DHT22;50653;0.000;0.000;2022-09-03T13:24:23;22.00;92.40
14397;DHT22;50653;0.000;0.000;2022-09-03T13:35:08;22.00;92.00
14397;DHT22;50653;0.000;0.000;2022-09-03T13:37:41;21.90;92.30
14397;DHT22;50653;0.000;0.000;2022-09-03T13:40:32;21.90;92.50
14397;DHT22;50653;0.000;0.000;2022-09-03T13:43:25;21.90;93.20
14397;DHT22;50653;0.000;0.000;2022-09-03T13:46:08;21.90;93.00
14397;DHT22;50653;0.000;0.000;2022-09-03T13:48:40;21.90;93.10
14397;DHT22;50653;0.000;0.000;2022-09-03T13:51:50;21.90;92.70
14397;DHT22;50653;0.000;0.000;2022-09-03T13:54:20;21.90;92.80
14397;DHT22;50653;0.000;0.000;2022-09-03T13:56:52;21.90;92.70
14397;DHT22;50653;0.000;0.000;2022-09-03T14:02:07;21.90;93.20
14397;DHT22;50653;0.000;0.000;2022-09-03T14:13:16;21.90;92.80
14397;DHT22;50653;0.000;0.000;2022-09-03T14:15:57;21.90;93.10
14397;DHT22;50653;0.000;0.000;2022-09-03T14:18:39;22.00;92.50
14397;DHT22;50653;0.000;0.000;2022-09-03T14:21:16;22.00;92.90
14397;DHT22;50653;0.000;0.000;2022-09-03T14:23:58;21.90;92.40
14397;DHT22;50653;0.000;0.000;2022-09-03T14:26:31;22.00;91.70
14397;DHT22;50653;0.000;0.000;2022-09-03T14:32:05;22.10;91.80
14397;DHT22;50653;0.000;0.000;2022-09-03T14:34:53;22.00;91.70
14397;DHT22;50653;0.000;0.000;2022-09-03T14:40:23;22.00;92.60
14397;DHT22;50653;0.000;0.000;2022-09-03T14:54:29;21.90;93.60
14397;DHT22;50653;0.000;0.000;2022-09-03T14:59:53;21.80;93.90
14397;DHT22;50653;0.000;0.000;2022-09-03T15:08:36;21.80;94.40
14397;DHT22;50653;0.000;0.000;2022-09-03T15:11:34;21.80;94.40
14397;DHT22;50653;0.000;0.000;2022-09-03T15:14:13;21.70;95.00
14397;DHT22;50653;0.000;0.000;2022-09-03T15:16:49;21.80;95.00
14397;DHT22;50653;0.000;0.000;2022-09-03T15:22:23;21.80;95.30
14397;DHT22;50653;0.000;0.000;2022-09-03T15:28:10;21.80;94.30
14397;DHT22;50653;0.000;0.000;2022-09-03T15:36:23;21.70;93.50
14397;DHT22;50653;0.000;0.000;2022-09-03T15:41:45;21.70;93.60
14397;DHT22;50653;0.000;0.000;2022-09-03T15:44:16;21.70;93.10
14397;DHT22;50653;0.000;0.000;2022-09-03T15:46:46;21.70;93.10
14397;DHT22;50653;0.000;0.000;2022-09-03T15:49:35;21.60;93.30
14397;DHT22;50653;0.000;0.000;2022-09-03T15:57:47;21.60;91.20
14397;DHT22;50653;0.000;0.000;2022-09-03T16:00:18;21.60;91.40
14397;DHT22;50653;0.000;0.000;2022-09-03T16:03:07;21.60;91.70
14397;DHT22;50653;0.000;0.000;2022-09-03T16:06:02;21.50;91.90
14397;DHT22;50653;0.000;0.000;2022-09-03T16:08:48;21.50;92.40
14397;DHT22;50653;0.000;0.000;2022-09-03T16:14:16;21.50;92.20
14397;DHT22;50653;0.000;0.000;2022-09-03T16:20:02;21.40;92.10
14397;DHT22;50653;0.000;0.000;2022-09-03T16:22:31;21.40;92.50
14397;DHT22;50653;0.000;0.000;2022-09-03T16:25:01;21.40;92.50
14397;DHT22;50653;0.000;0.000;2022-09-03T16:30:56;21.30;92.90
14397;DHT22;50653;0.000;0.000;2022-09-03T16:35:54;21.30;94.70
14397;DHT22;50653;0.000;0.000;2022-09-03T16:38:46;21.20;92.40
14397;DHT22;50653;0.000;0.000;2022-09-03T16:44:10;20.60;90.80
14397;DHT22;50653;0.000;0.000;2022-09-03T16:57:18;19.70;92.40
14397;DHT22;50653;0.000;0.000;2022-09-03T17:02:39;19.40;97.20
14397;DHT22;50653;0.000;0.000;2022-09-03T17:19:50;18.80;99.90
14397;DHT22;50653;0.000;0.000;2022-09-03T17:22:51;18.80;99.90
14397;DHT22;50653;0.000;0.000;2022-09-03T17:25:23;18.90;99.90
14397;DHT22;50653;0.000;0.000;2022-09-03T17:37:00;18.40;99.90
14397;DHT22;50653;0.000;0.000;2022-09-03T17:39:51;18.30;99.90
14397;DHT22;50653;0.000;0.000;2022-09-03T17:42:59;18.40;99.90
14397;DHT22;50653;0.000;0.000;2022-09-03T17:45:48;18.40;99.90
14397;DHT22;50653;0.000;0.000;2022-09-03T17:51:07;18.30;99.90
14397;DHT22;50653;0.000;0.000;2022-09-03T17:53:59;18.30;99.90
14397;DHT22;50653;0.000;0.000;2022-09-03T18:02:09;18.40;99.90
14397;DHT22;50653;0.000;0.000;2022-09-03T18:04:46;18.40;99.90
14397;DHT22;50653;0.000;0.000;2022-09-03T18:07:32;18.20;99.90
14397;DHT22;50653;0.000;0.000;2022-09-03T18:10:17;18.40;99.90
14397;DHT22;50653;0.000;0.000;2022-09-03T18:18:26;18.30;99.90
14397;DHT22;50653;0.000;0.000;2022-09-03T18:20:58;18.20;99.90
14397;DHT22;50653;0.000;0.000;2022-09-03T18:26:33;18.30;99.90
14397;DHT22;50653;0.000;0.000;2022-09-03T18:32:14;17.80;99.90
14397;DHT22;50653;0.000;0.000;2022-09-03T18:34:58;18.20;99.90
14397;DHT22;50653;0.000;0.000;2022-09-03T18:37:43;18.30;99.90
14397;DHT22;50653;0.000;0.000;2022-09-03T18:40:35;18.40;99.90
14397;DHT22;50653;0.000;0.000;2022-09-03T18:49:31;18.40;99.90
14397;DHT22;50653;0.000;0.000;2022-09-03T18:55:40;18.30;99.90
14397;DHT22;50653;0.000;0.000;2022-09-03T19:01:30;18.20;99.90
14397;DHT22;50653;0.000;0.000;2022-09-03T19:04:41;18.30;99.90
14397;DHT22;50653;0.000;0.000;2022-09-03T19:13:42;18.10;99.90
14397;DHT22;50653;0.000;0.000;2022-09-03T19:17:04;17.80;99.90
14397;DHT22;50653;0.000;0.000;2022-09-03T19:23:01;17.70;99.90
14397;DHT22;50653;0.000;0.000;2022-09-03T19:25:46;17.80;99.90
14397;DHT22;50653;0.000;0.000;2022-09-03T19:28:36;17.80;99.90
14397;DHT22;50653;0.000;0.000;2022-09-03T19:31:55;17.50;99.90
14397;DHT22;50653;0.000;0.000;2022-09-03T19:37:59;17.40;99.90
14397;DHT22;50653;0.000;0.000;2022-09-03T19:44:23;17.40;99.90
14397;DHT22;50653;0.000;0.000;2022-09-03T19:47:20;17.20;99.90
14397;DHT22;50653;0.000;0.000;2022-09-03T19:50:19;17.00;99.90
14397;DHT22;50653;0.000;0.000;2022-09-03T19:53:06;17.20;99.90
14397;DHT22;50653;0.000;0.000;2022-09-03T19:55:57;17.30;99.90
14397;DHT22;50653;0.000;0.000;2022-09-03T19:58:54;17.30;99.90
14397;DHT22;50653;0.000;0.000;2022-09-03T20:01:39;17.40;99.90
14397;DHT22;50653;0.000;0.000;2022-09-03T20:04:38;17.40;99.90
14397;DHT22;50653;0.000;0.000;2022-09-03T20:07:24;17.50;99.90
14397;DHT22;50653;0.000;0.000;2022-09-03T20:10:11;17.10;99.90
14397;DHT22;50653;0.000;0.000;2022-09-03T20:23:46;17.50;99.90
14397;DHT22;50653;0.000;0.000;2022-09-03T20:35:34;17.70;99.90
14397;DHT22;50653;0.000;0.000;2022-09-03T20:47:00;17.70;99.90
14397;DHT22;50653;0.000;0.000;2022-09-03T20:49:57;17.80;99.90
14397;DHT22;50653;0.000;0.000;2022-09-03T20:53:02;17.80;99.90
14397;DHT22;50653;0.000;0.000;2022-09-03T20:55:41;17.70;99.90
14397;DHT22;50653;0.000;0.000;2022-09-03T21:00:56;17.70;99.90
14397;DHT22;50653;0.000;0.000;2022-09-03T21:03:46;17.60;99.90
14397;DHT22;50653;0.000;0.000;2022-09-03T21:06:40;17.10;99.90
14397;DHT22;50653;0.000;0.000;2022-09-03T21:12:16;17.10;99.90
14397;DHT22;50653;0.000;0.000;2022-09-03T21:14:57;16.90;99.90
14397;DHT22;50653;0.000;0.000;2022-09-03T21:17:46;17.20;99.90
14397;DHT22;50653;0.000;0.000;2022-09-03T21:20:40;17.10;99.90
14397;DHT22;50653;0.000;0.000;2022-09-03T21:23:47;17.20;99.90
14397;DHT22;50653;0.000;0.000;2022-09-03T21:26:22;17.40;99.90
14397;DHT22;50653;0.000;0.000;2022-09-03T21:31:48;17.00;99.90
14397;DHT22;50653;0.000;0.000;2022-09-03T21:34:20;17.30;99.90
14397;DHT22;50653;0.000;0.000;2022-09-03T21:36:50;17.30;99.90
14397;DHT22;50653;0.000;0.000;2022-09-03T21:39:21;17.30;99.90
14397;DHT22;50653;0.000;0.000;2022-09-03T21:44:45;17.00;99.90
14397;DHT22;50653;0.000;0.000;2022-09-03T21:47:17;17.00;99.90
14397;DHT22;50653;0.000;0.000;2022-09-03T21:50:06;17.10;99.90
14397;DHT22;50653;0.000;0.000;2022-09-03T21:55:21;17.00;99.90
14397;DHT22;50653;0.000;0.000;2022-09-03T21:57:54;17.20;99.90
14397;DHT22;50653;0.000;0.000;2022-09-03T22:00:26;17.30;99.90